Time,TemperatureF,DewpointF,PressureIn,WindDirection,WindDirectionDegrees,WindSpeedMPH,WindSpeedGustMPH,Humidity,HourlyPrecipIn,Conditions,Clouds,dailyrainin,SoftwareType,DateUTC
2013-06-08 00:02:00,56.0,50.0,29.93,North,8,0.0,4.0,80,0.00,,,0.00,,2013-06-08 05:02:00,
2013-06-08 00:12:00,56.0,50.0,29.93,North,8,0.0,4.0,80,0.00,,,0.00,,2013-06-08 05:12:00,
2013-06-08 00:22:00,57.0,51.0,29.93,North,8,0.0,2.0,79,0.00,,,0.00,,2013-06-08 05:22:00,
2013-06-08 00:32:00,56.0,50.0,29.93,North,8,0.0,1.0,80,0.00,,,0.00,,2013-06-08 05:32:00,
2013-06-08 00:42:00,56.0,50.0,29.93,North,8,0.0,1.0,80,0.00,,,0.00,,2013-06-08 05:42:00,
2013-06-08 00:52:00,56.0,50.0,29.93,North,8,2.0,3.0,80,0.00,,,0.00,,2013-06-08 05:52:00,
2013-06-08 01:02:00,56.0,50.0,29.93,NNE,14,1.0,3.0,80,0.00,,,0.00,,2013-06-08 06:02:00,
2013-06-08 01:12:00,56.0,50.0,29.93,NNE,14,1.0,3.0,80,0.00,,,0.00,,2013-06-08 06:12:00,
2013-06-08 01:22:00,56.0,50.0,29.93,NNE,14,0.0,2.0,80,0.00,,,0.00,,2013-06-08 06:22:00,
2013-06-08 01:32:00,55.0,50.0,29.93,NNE,13,0.0,0.0,83,0.00,,,0.00,,2013-06-08 06:32:00,
2013-06-08 01:42:00,55.0,50.0,29.93,NNE,13,0.0,0.0,83,0.00,,,0.00,,2013-06-08 06:42:00,
2013-06-08 01:52:00,54.0,49.0,29.92,NNE,13,0.0,2.0,84,0.00,,,0.00,,2013-06-08 06:52:00,
2013-06-08 02:02:00,53.0,49.0,29.92,NNE,13,2.0,3.0,86,0.00,,,0.00,,2013-06-08 07:02:00,
2013-06-08 02:12:00,53.0,49.0,29.92,NNE,13,2.0,3.0,86,0.00,,,0.00,,2013-06-08 07:12:00,
2013-06-08 02:22:00,53.0,49.0,29.92,North,359,0.0,3.0,86,0.00,,,0.00,,2013-06-08 07:22:00,
2013-06-08 02:32:00,54.0,50.0,29.92,North,3,2.0,3.0,85,0.00,,,0.00,,2013-06-08 07:32:00,
2013-06-08 02:42:00,54.0,50.0,29.92,North,3,2.0,3.0,85,0.00,,,0.00,,2013-06-08 07:42:00,
2013-06-08 02:52:00,54.0,49.0,29.92,North,7,2.0,4.0,84,0.00,,,0.00,,2013-06-08 07:52:00,
2013-06-08 03:02:00,55.0,50.0,29.92,NNE,22,2.0,4.0,84,0.00,,,0.00,,2013-06-08 08:02:00,
2013-06-08 03:12:00,55.0,50.0,29.92,NNE,22,2.0,4.0,84,0.00,,,0.00,,2013-06-08 08:12:00,
2013-06-08 03:22:00,55.0,50.0,29.92,NNE,22,0.0,2.0,83,0.00,,,0.00,,2013-06-08 08:22:00,
2013-06-08 03:32:00,54.0,50.0,29.92,NNE,22,0.0,0.0,85,0.00,,,0.00,,2013-06-08 08:32:00,
2013-06-08 03:42:00,54.0,50.0,29.92,NNE,22,0.0,0.0,85,0.00,,,0.00,,2013-06-08 08:42:00,
2013-06-08 03:52:00,53.0,49.0,29.92,NNE,22,1.0,3.0,86,0.00,,,0.00,,2013-06-08 08:52:00,
2013-06-08 04:02:00,53.0,50.0,29.92,NNE,22,0.0,2.0,89,0.00,,,0.00,,2013-06-08 09:02:00,
2013-06-08 04:12:00,53.0,50.0,29.92,NNE,22,0.0,2.0,89,0.00,,,0.00,,2013-06-08 09:12:00,
2013-06-08 04:22:00,53.0,50.0,29.92,NNE,22,0.0,0.0,89,0.00,,,0.00,,2013-06-08 09:22:00,
2013-06-08 04:33:00,53.0,50.0,29.92,NNE,22,0.0,0.0,89,0.00,,,0.00,,2013-06-08 09:33:00,
2013-06-08 04:43:00,53.0,50.0,29.92,NNE,22,0.0,0.0,89,0.00,,,0.00,,2013-06-08 09:43:00,
2013-06-08 04:53:00,52.0,49.0,29.92,NNE,22,0.0,0.0,90,0.00,,,0.00,,2013-06-08 09:53:00,
2013-06-08 05:03:00,52.0,49.0,29.92,NNE,22,0.0,0.0,90,0.00,,,0.00,,2013-06-08 10:03:00,
2013-06-08 05:12:00,52.0,49.0,29.92,NNE,22,0.0,0.0,90,0.00,,,0.00,,2013-06-08 10:12:00,
2013-06-08 05:22:00,52.0,49.0,29.92,NNE,22,0.0,0.0,90,0.00,,,0.00,,2013-06-08 10:22:00,
2013-06-08 05:33:00,52.0,49.0,29.92,NNE,22,1.0,2.0,90,0.00,,,0.00,,2013-06-08 10:33:00,
2013-06-08 05:43:00,52.0,49.0,29.92,NNE,22,1.0,2.0,90,0.00,,,0.00,,2013-06-08 10:43:00,
2013-06-08 05:52:00,52.0,49.0,29.93,NNE,22,0.0,2.0,91,0.00,,,0.00,,2013-06-08 10:52:00,
2013-06-08 06:02:00,52.0,49.0,29.92,NNE,22,0.0,1.0,91,0.00,,,0.00,,2013-06-08 11:02:00,
2013-06-08 06:12:00,52.0,49.0,29.92,NNE,22,0.0,1.0,91,0.00,,,0.00,,2013-06-08 11:12:00,
2013-06-08 06:22:00,52.0,49.0,29.92,NNE,22,0.0,0.0,91,0.00,,,0.00,,2013-06-08 11:22:00,
2013-06-08 06:32:00,52.0,50.0,29.92,NNE,22,1.0,3.0,92,0.00,,,0.00,,2013-06-08 11:32:00,
2013-06-08 06:42:00,52.0,50.0,29.92,NNE,22,1.0,3.0,92,0.00,,,0.00,,2013-06-08 11:42:00,
2013-06-08 06:52:00,52.0,50.0,29.93,NNE,26,2.0,4.0,92,0.00,,,0.00,,2013-06-08 11:52:00,
2013-06-08 07:02:00,52.0,50.0,29.92,NNE,32,1.0,3.0,92,0.00,,,0.00,,2013-06-08 12:02:00,
2013-06-08 07:12:00,52.0,50.0,29.92,NNE,32,1.0,3.0,92,0.00,,,0.00,,2013-06-08 12:12:00,
2013-06-08 07:22:00,53.0,50.0,29.92,ENE,63,2.0,5.0,91,0.00,,,0.00,,2013-06-08 12:22:00,
2013-06-08 07:32:00,55.0,52.0,29.92,ENE,67,4.0,6.0,91,0.00,,,0.00,,2013-06-08 12:32:00,
2013-06-08 07:42:00,55.0,52.0,29.92,ENE,67,4.0,6.0,91,0.00,,,0.00,,2013-06-08 12:42:00,
2013-06-08 07:52:00,56.0,53.0,29.93,ENE,63,2.0,6.0,89,0.00,,,0.00,,2013-06-08 12:52:00,
2013-06-08 08:02:00,56.0,52.0,29.93,NE,47,5.0,10.0,88,0.00,,,0.00,,2013-06-08 13:02:00,
2013-06-08 08:12:00,56.0,52.0,29.93,NE,47,5.0,10.0,88,0.00,,,0.00,,2013-06-08 13:12:00,
2013-06-08 08:22:00,56.0,53.0,29.94,ENE,64,5.0,10.0,89,0.00,,,0.00,,2013-06-08 13:22:00,
2013-06-08 08:32:00,56.0,53.0,29.95,ENE,60,5.0,9.0,90,0.00,,,0.00,,2013-06-08 13:32:00,
2013-06-08 08:42:00,56.0,53.0,29.95,ENE,60,5.0,9.0,90,0.00,,,0.00,,2013-06-08 13:42:00,
2013-06-08 08:52:00,57.0,53.0,29.95,ENE,60,8.0,10.0,88,0.00,,,0.00,,2013-06-08 13:52:00,
2013-06-08 09:02:00,58.0,54.0,29.95,East,91,7.0,10.0,86,0.00,,,0.00,,2013-06-08 14:02:00,
2013-06-08 09:12:00,58.0,54.0,29.95,East,91,7.0,10.0,86,0.00,,,0.00,,2013-06-08 14:12:00,
2013-06-08 09:22:00,59.0,55.0,29.95,East,81,5.0,10.0,86,0.00,,,0.00,,2013-06-08 14:22:00,
2013-06-08 09:32:00,61.0,55.0,29.95,ESE,105,5.0,10.0,80,0.00,,,0.00,,2013-06-08 14:32:00,
2013-06-08 09:42:00,61.0,55.0,29.95,ESE,105,5.0,10.0,80,0.00,,,0.00,,2013-06-08 14:42:00,
2013-06-08 09:52:00,62.0,55.0,29.96,East,85,7.0,11.0,78,0.00,,,0.00,,2013-06-08 14:52:00,
2013-06-08 10:02:00,63.0,55.0,29.96,East,90,7.0,11.0,76,0.00,,,0.00,,2013-06-08 15:02:00,
2013-06-08 10:12:00,63.0,55.0,29.96,East,90,7.0,11.0,76,0.00,,,0.00,,2013-06-08 15:12:00,
2013-06-08 10:22:00,63.0,56.0,29.95,East,91,5.0,9.0,77,0.00,,,0.00,,2013-06-08 15:22:00,
2013-06-08 10:32:00,65.0,56.0,29.95,East,97,6.0,12.0,73,0.00,,,0.00,,2013-06-08 15:32:00,
2013-06-08 10:42:00,65.0,56.0,29.95,East,97,6.0,12.0,73,0.00,,,0.00,,2013-06-08 15:42:00,
2013-06-08 10:53:00,66.0,56.0,29.95,East,80,8.0,13.0,70,0.00,,,0.00,,2013-06-08 15:53:00,
2013-06-08 11:03:00,65.0,55.0,29.95,ENE,78,8.0,14.0,71,0.00,,,0.00,,2013-06-08 16:03:00,
2013-06-08 11:12:00,65.0,55.0,29.95,ENE,78,8.0,14.0,71,0.00,,,0.00,,2013-06-08 16:12:00,
2013-06-08 11:23:00,65.0,55.0,29.96,East,99,9.0,13.0,69,0.00,,,0.00,,2013-06-08 16:23:00,
2013-06-08 11:33:00,68.0,57.0,29.96,ESE,103,9.0,13.0,69,0.00,,,0.00,,2013-06-08 16:33:00,
2013-06-08 11:42:00,68.0,57.0,29.96,ESE,103,9.0,13.0,69,0.00,,,0.00,,2013-06-08 16:42:00,
2013-06-08 11:53:00,69.0,56.0,29.96,East,91,7.0,12.0,64,0.00,,,0.00,,2013-06-08 16:53:00,
2013-06-08 12:02:00,68.0,55.0,29.95,East,98,9.0,15.0,63,0.00,,,0.00,,2013-06-08 17:02:00,
2013-06-08 12:12:00,68.0,55.0,29.95,East,98,9.0,15.0,63,0.00,,,0.00,,2013-06-08 17:12:00,
2013-06-08 12:22:00,69.0,56.0,29.95,ESE,108,9.0,16.0,63,0.00,,,0.00,,2013-06-08 17:22:00,
2013-06-08 12:32:00,69.0,57.0,29.95,ESE,110,7.0,12.0,65,0.00,,,0.00,,2013-06-08 17:32:00,
2013-06-08 12:42:00,69.0,57.0,29.95,ESE,110,7.0,12.0,65,0.00,,,0.00,,2013-06-08 17:42:00,
2013-06-08 12:52:00,70.0,55.0,29.94,East,97,7.0,13.0,58,0.00,,,0.00,,2013-06-08 17:52:00,
2013-06-08 13:02:00,70.0,55.0,29.94,East,97,7.0,13.0,58,0.00,,,0.00,,2013-06-08 18:02:00,
2013-06-08 13:12:00,70.0,55.0,29.94,East,97,7.0,13.0,58,0.00,,,0.00,,2013-06-08 18:12:00,
2013-06-08 13:22:00,69.0,55.0,29.94,ENE,76,6.0,16.0,61,0.00,,,0.00,,2013-06-08 18:22:00,
2013-06-08 13:32:00,69.0,55.0,29.93,SE,144,6.0,15.0,60,0.00,,,0.00,,2013-06-08 18:32:00,
2013-06-08 13:42:00,69.0,55.0,29.93,SE,144,6.0,15.0,60,0.00,,,0.00,,2013-06-08 18:42:00,
2013-06-08 13:52:00,69.0,55.0,29.93,SE,131,6.0,10.0,62,0.00,,,0.00,,2013-06-08 18:52:00,
2013-06-08 14:03:00,68.0,54.0,29.93,SSE,159,9.0,13.0,60,0.00,,,0.00,,2013-06-08 19:03:00,
2013-06-08 14:12:00,68.0,54.0,29.93,SSE,159,9.0,13.0,60,0.00,,,0.00,,2013-06-08 19:12:00,
2013-06-08 14:22:00,67.0,55.0,29.93,ESE,122,8.0,14.0,66,0.00,,,0.00,,2013-06-08 19:22:00,
2013-06-08 14:32:00,67.0,54.0,29.93,SE,140,8.0,17.0,64,0.00,,,0.00,,2013-06-08 19:32:00,
2013-06-08 14:42:00,67.0,54.0,29.93,SE,140,8.0,17.0,64,0.00,,,0.00,,2013-06-08 19:42:00,
2013-06-08 14:52:00,67.0,54.0,29.93,SSE,148,8.0,16.0,64,0.00,,,0.00,,2013-06-08 19:52:00,
2013-06-08 15:02:00,67.0,54.0,29.93,SE,139,7.0,15.0,64,0.00,,,0.00,,2013-06-08 20:02:00,
2013-06-08 15:12:00,67.0,54.0,29.93,SE,139,7.0,15.0,64,0.00,,,0.00,,2013-06-08 20:12:00,
2013-06-08 15:22:00,68.0,55.0,29.93,East,101,9.0,13.0,63,0.00,,,0.00,,2013-06-08 20:22:00,
2013-06-08 15:32:00,67.0,54.0,29.94,SE,125,9.0,12.0,64,0.00,,,0.00,,2013-06-08 20:32:00,
2013-06-08 15:42:00,67.0,54.0,29.94,SE,125,9.0,12.0,64,0.00,,,0.00,,2013-06-08 20:42:00,
2013-06-08 15:52:00,68.0,55.0,29.93,ESE,120,10.0,15.0,63,0.00,,,0.00,,2013-06-08 20:52:00,
2013-06-08 16:02:00,68.0,54.0,29.93,ESE,120,10.0,17.0,61,0.00,,,0.00,,2013-06-08 21:02:00,
2013-06-08 16:12:00,68.0,54.0,29.93,ESE,120,10.0,17.0,61,0.00,,,0.00,,2013-06-08 21:12:00,
2013-06-08 16:22:00,68.0,54.0,29.93,SE,128,11.0,16.0,60,0.00,,,0.00,,2013-06-08 21:22:00,
2013-06-08 16:33:00,68.0,54.0,29.93,SE,129,7.0,15.0,62,0.00,,,0.00,,2013-06-08 21:33:00,
2013-06-08 16:43:00,68.0,54.0,29.93,SE,129,7.0,15.0,62,0.00,,,0.00,,2013-06-08 21:43:00,
2013-06-08 16:52:00,69.0,55.0,29.93,SE,124,10.0,14.0,61,0.00,,,0.00,,2013-06-08 21:52:00,
2013-06-08 17:02:00,69.0,55.0,29.94,SSE,163,8.0,17.0,61,0.00,,,0.00,,2013-06-08 22:02:00,
2013-06-08 17:12:00,69.0,55.0,29.93,SSE,151,8.0,15.0,60,0.00,,,0.00,,2013-06-08 22:12:00,
2013-06-08 17:22:00,69.0,55.0,29.93,SSE,151,8.0,15.0,60,0.00,,,0.00,,2013-06-08 22:22:00,
2013-06-08 17:33:00,69.0,55.0,29.94,SE,136,12.0,18.0,60,0.00,,,0.00,,2013-06-08 22:33:00,
2013-06-08 17:42:00,68.0,54.0,29.94,SSE,149,12.0,18.0,61,0.00,,,0.00,,2013-06-08 22:42:00,
2013-06-08 17:52:00,68.0,54.0,29.94,SSE,149,12.0,18.0,61,0.00,,,0.00,,2013-06-08 22:52:00,
2013-06-08 18:02:00,68.0,54.0,29.94,SSE,157,12.0,17.0,62,0.00,,,0.00,,2013-06-08 23:02:00,
2013-06-08 18:12:00,68.0,54.0,29.94,SSE,148,11.0,18.0,60,0.00,,,0.00,,2013-06-08 23:12:00,
2013-06-08 18:22:00,68.0,54.0,29.94,SSE,148,11.0,18.0,60,0.00,,,0.00,,2013-06-08 23:22:00,
2013-06-08 18:32:00,68.0,55.0,29.94,SE,131,9.0,15.0,64,0.00,,,0.00,,2013-06-08 23:32:00,
2013-06-08 18:42:00,68.0,55.0,29.94,SE,131,9.0,15.0,64,0.00,,,0.00,,2013-06-08 23:42:00,
2013-06-08 18:52:00,68.0,55.0,29.93,SE,136,9.0,17.0,64,0.00,,,0.00,,2013-06-08 23:52:00,
2013-06-08 19:02:00,67.0,53.0,29.93,ESE,122,11.0,17.0,61,0.00,,,0.00,,2013-06-09 00:02:00,
2013-06-08 19:12:00,67.0,53.0,29.93,ESE,122,11.0,17.0,61,0.00,,,0.00,,2013-06-09 00:12:00,
2013-06-08 19:22:00,67.0,54.0,29.94,SE,126,11.0,17.0,62,0.00,,,0.00,,2013-06-09 00:22:00,
2013-06-08 19:32:00,66.0,53.0,29.94,SE,139,9.0,17.0,63,0.00,,,0.00,,2013-06-09 00:32:00,
2013-06-08 19:42:00,66.0,53.0,29.94,SE,139,9.0,17.0,63,0.00,,,0.00,,2013-06-09 00:42:00,
2013-06-08 19:52:00,65.0,53.0,29.95,SSE,164,8.0,15.0,65,0.00,,,0.00,,2013-06-09 00:52:00,
2013-06-08 20:02:00,65.0,55.0,29.94,SE,139,9.0,16.0,69,0.00,,,0.00,,2013-06-09 01:02:00,
2013-06-08 20:12:00,64.0,54.0,29.94,SE,132,6.0,15.0,71,0.00,,,0.00,,2013-06-09 01:12:00,
2013-06-08 20:22:00,64.0,54.0,29.94,SE,132,6.0,15.0,71,0.00,,,0.00,,2013-06-09 01:22:00,
2013-06-08 20:32:00,64.0,55.0,29.94,SE,124,5.0,11.0,72,0.00,,,0.00,,2013-06-09 01:32:00,
2013-06-08 20:42:00,64.0,55.0,29.94,SE,124,5.0,11.0,72,0.00,,,0.00,,2013-06-09 01:42:00,
2013-06-08 20:52:00,63.0,53.0,29.95,ESE,122,5.0,8.0,71,0.00,,,0.00,,2013-06-09 01:52:00,
2013-06-08 21:02:00,63.0,53.0,29.95,ESE,110,5.0,10.0,71,0.00,,,0.00,,2013-06-09 02:02:00,
2013-06-08 21:12:00,63.0,53.0,29.95,ESE,110,5.0,10.0,71,0.00,,,0.00,,2013-06-09 02:12:00,
2013-06-08 21:22:00,62.0,53.0,29.95,ESE,115,4.0,9.0,72,0.00,,,0.00,,2013-06-09 02:22:00,
2013-06-08 21:32:00,61.0,52.0,29.95,East,90,3.0,8.0,73,0.00,,,0.00,,2013-06-09 02:32:00,
2013-06-08 21:42:00,61.0,52.0,29.95,East,90,3.0,8.0,73,0.00,,,0.00,,2013-06-09 02:42:00,
2013-06-08 21:52:00,60.0,51.0,29.95,ESE,103,5.0,8.0,73,0.00,,,0.00,,2013-06-09 02:52:00,
2013-06-08 22:02:00,60.0,51.0,29.95,East,100,5.0,8.0,73,0.00,,,0.00,,2013-06-09 03:02:00,
2013-06-08 22:12:00,60.0,51.0,29.95,East,100,5.0,8.0,73,0.00,,,0.00,,2013-06-09 03:12:00,
2013-06-08 22:22:00,59.0,50.0,29.95,East,96,6.0,9.0,73,0.00,,,0.00,,2013-06-09 03:22:00,
2013-06-08 22:33:00,59.0,50.0,29.96,ESE,102,4.0,9.0,73,0.00,,,0.00,,2013-06-09 03:33:00,
2013-06-08 22:43:00,59.0,50.0,29.96,ESE,102,4.0,9.0,73,0.00,,,0.00,,2013-06-09 03:43:00,
2013-06-08 22:53:00,59.0,51.0,29.95,ESE,104,5.0,9.0,74,0.00,,,0.00,,2013-06-09 03:53:00,
2013-06-08 23:03:00,59.0,51.0,29.96,ESE,118,4.0,9.0,74,0.00,,,0.00,,2013-06-09 04:03:00,
2013-06-08 23:12:00,59.0,51.0,29.96,ESE,118,4.0,9.0,74,0.00,,,0.00,,2013-06-09 04:12:00,
2013-06-08 23:22:00,58.0,50.0,29.96,ESE,114,5.0,11.0,76,0.00,,,0.00,,2013-06-09 04:22:00,
2013-06-08 23:33:00,58.0,50.0,29.96,SE,126,4.0,9.0,76,0.00,,,0.00,,2013-06-09 04:33:00,
2013-06-08 23:43:00,58.0,50.0,29.96,SE,126,4.0,9.0,76,0.00,,,0.00,,2013-06-09 04:43:00,
2013-06-08 23:52:00,58.0,51.0,29.96,ESE,114,5.0,8.0,77,0.00,,,0.00,,2013-06-09 04:52:00,